Time;durP1;ratioP1;P1;durP2;ratioP2;P2;SDS_P1;SDS_P2;PMS_P1;PMS_P2;Temp;Humidity;BMP_temperature;BMP_pressure;BME280_temperature;BME280_humidity;BME280_pressure;Samples;Min_cycle;Max_cycle;Signal;HPM_P1;HPM_P2
2023/11/22 00:00:14;;;;;;;10.48;1.20;;;;;;;6.37;71.33;101087.50;10258627;28;20062;-60
2023/11/22 00:05:16;;;;;;;3.72;1.33;;;;;;;6.32;71.17;101087.91;10262566;28;20055;-60
2023/11/22 00:10:18;;;;;;;1.90;1.23;;;;;;;6.29;70.89;101096.16;10257983;28;20067;-60
2023/11/22 00:15:19;;;;;;;2.05;1.25;;;;;;;6.27;70.50;101096.28;10259282;28;20051;-60
2023/11/22 00:20:22;;;;;;;4.22;1.45;;;;;;;6.23;70.95;101116.22;10244817;28;20065;-60
2023/11/22 00:25:24;;;;;;;2.75;1.40;;;;;;;6.18;71.22;101129.13;10245179;28;20054;-60
2023/11/22 00:30:26;;;;;;;2.50;1.30;;;;;;;6.12;71.71;101134.94;10262445;28;20055;-60
2023/11/22 00:35:27;;;;;;;4.03;1.73;;;;;;;6.07;70.82;101146.00;10261299;28;20081;-60
2023/11/22 00:40:29;;;;;;;7.20;2.28;;;;;;;6.01;71.56;101140.34;10262336;28;20051;-60
2023/11/22 00:45:30;;;;;;;3.30;1.52;;;;;;;6.03;70.90;101141.91;10262950;28;20054;-60
2023/11/22 00:50:32;;;;;;;4.00;1.67;;;;;;;6.05;71.27;101147.13;10264868;28;20053;-60
2023/11/22 00:55:34;;;;;;;5.47;2.03;;;;;;;6.09;71.17;101140.56;10265049;28;20077;-60
2023/11/22 01:00:35;;;;;;;6.53;2.70;;;;;;;6.06;71.13;101139.00;10252953;28;20435;-60
2023/11/22 01:05:37;;;;;;;3.22;1.73;;;;;;;6.11;70.76;101150.13;10266434;28;20418;-59
2023/11/22 01:10:38;;;;;;;4.20;1.92;;;;;;;6.14;70.82;101151.69;10264729;28;20058;-59
2023/11/22 01:15:41;;;;;;;4.10;1.83;;;;;;;6.09;70.98;101145.88;10264989;28;20051;-58
2023/11/22 01:20:43;;;;;;;3.15;1.90;;;;;;;6.06;70.57;101160.34;10263193;28;20089;-59
2023/11/22 01:25:44;;;;;;;5.55;2.17;;;;;;;6.00;71.20;101168.00;10266547;28;20086;-59
2023/11/22 01:30:45;;;;;;;3.88;1.60;;;;;;;5.97;70.88;101171.78;10262907;28;20073;-59
2023/11/22 01:35:48;;;;;;;8.65;1.50;;;;;;;5.94;71.28;101171.97;10263340;28;20957;-58
2023/11/22 01:40:51;;;;;;;3.10;1.67;;;;;;;5.89;71.51;101176.84;10266247;28;20127;-59
2023/11/22 01:45:54;;;;;;;11.32;2.22;;;;;;;5.88;70.78;101186.66;10263720;28;20044;-59
2023/11/22 01:50:56;;;;;;;3.22;1.55;;;;;;;5.85;70.74;101192.25;10266874;28;20105;-59
2023/11/22 01:55:58;;;;;;;3.40;1.70;;;;;;;5.86;70.75;101185.09;10262218;28;20522;-59
2023/11/22 02:01:01;;;;;;;2.97;1.27;;;;;;;5.82;71.35;101203.16;10260779;28;20057;-58
2023/11/22 02:06:03;;;;;;;4.07;1.50;;;;;;;5.81;70.85;101205.97;10267552;28;20047;-59
2023/11/22 02:11:04;;;;;;;3.80;1.50;;;;;;;5.78;70.87;101211.56;10250332;28;20051;-59
2023/11/22 02:16:05;;;;;;;3.85;1.92;;;;;;;5.76;70.44;101215.19;10263934;28;20462;-60
2023/11/22 02:21:07;;;;;;;3.83;1.95;;;;;;;5.76;70.56;101217.84;10265242;28;20142;-60
2023/11/22 02:26:08;;;;;;;3.50;1.48;;;;;;;5.76;70.13;101231.19;10263703;28;20598;-60
2023/11/22 02:31:10;;;;;;;2.78;1.30;;;;;;;5.72;70.38;101236.91;10261804;28;20442;-60
2023/11/22 02:36:14;;;;;;;2.55;1.17;;;;;;;5.69;70.36;101235.34;10264548;28;20058;-60
2023/11/22 02:41:16;;;;;;;5.63;1.75;;;;;;;5.65;70.97;101222.38;10262790;28;20051;-60
2023/11/22 02:46:17;;;;;;;4.43;1.38;;;;;;;5.58;71.13;101214.00;10260719;28;20051;-60
2023/11/22 02:51:21;;;;;;;4.78;2.10;;;;;;;5.56;70.41;101206.09;10263708;28;20097;-60
2023/11/22 02:56:22;;;;;;;5.25;1.58;;;;;;;5.56;69.85;101202.59;10263380;28;20414;-60
2023/11/22 03:01:25;;;;;;;5.75;1.38;;;;;;;5.54;70.27;101208.03;10268009;28;20098;-60
2023/11/22 03:06:27;;;;;;;3.13;1.73;;;;;;;5.49;69.93;101210.25;10262544;28;20055;-60
2023/11/22 03:11:29;;;;;;;6.60;2.03;;;;;;;5.42;70.24;101227.69;10259943;28;20545;-60
2023/11/22 03:16:30;;;;;;;2.55;1.20;;;;;;;5.40;70.56;101239.47;10255208;28;20134;-60
2023/11/22 03:21:32;;;;;;;3.90;1.58;;;;;;;5.38;70.47;101247.56;10261692;28;20055;-58
2023/11/22 03:26:34;;;;;;;4.25;1.88;;;;;;;5.31;70.85;101247.22;10255180;28;20062;-58
2023/11/22 03:31:35;;;;;;;3.75;1.52;;;;;;;5.30;70.29;101250.84;10258431;28;20050;-58
2023/11/22 03:36:37;;;;;;;3.10;1.58;;;;;;;5.21;69.95;101256.03;10268286;28;20533;-58
2023/11/22 03:41:38;;;;;;;5.47;1.52;;;;;;;5.13;70.26;101264.59;10260812;28;20050;-58
2023/11/22 03:46:40;;;;;;;2.40;1.45;;;;;;;5.12;70.36;101268.25;10263579;28;20097;-58
2023/11/22 03:51:42;;;;;;;5.65;1.35;;;;;;;5.06;70.45;101285.56;10260833;28;20187;-58
2023/11/22 03:56:44;;;;;;;2.08;0.93;;;;;;;5.02;70.35;101299.25;10259187;28;20051;-58
2023/11/22 04:01:45;;;;;;;3.20;1.42;;;;;;;5.01;70.12;101308.19;10262899;28;20491;-58
2023/11/22 04:06:47;;;;;;;3.53;1.13;;;;;;;4.95;69.89;101321.00;10263711;28;20081;-58
2023/11/22 04:11:48;;;;;;;3.85;1.13;;;;;;;4.94;70.04;101321.13;10258802;28;20627;-58
2023/11/22 04:16:50;;;;;;;2.47;1.17;;;;;;;4.99;69.67;101328.78;10259000;28;20049;-58
2023/11/22 04:21:54;;;;;;;2.33;1.20;;;;;;;5.00;69.68;101346.47;10261191;28;20051;-59
2023/11/22 04:26:55;;;;;;;4.82;1.23;;;;;;;5.02;69.33;101347.22;10258874;28;20054;-58
2023/11/22 04:31:56;;;;;;;2.78;1.10;;;;;;;5.00;69.08;101347.31;10264971;28;20405;-60
2023/11/22 04:36:58;;;;;;;6.90;1.50;;;;;;;4.85;69.00;101361.78;10261056;28;20382;-60
2023/11/22 04:42:00;;;;;;;2.55;1.05;;;;;;;4.77;69.34;101368.50;10260638;28;20039;-60
2023/11/22 04:47:01;;;;;;;3.03;1.10;;;;;;;4.74;69.79;101382.06;10259584;28;20052;-60
2023/11/22 04:52:03;;;;;;;7.55;1.63;;;;;;;4.68;69.54;101371.00;10260683;28;20075;-60
2023/11/22 04:57:05;;;;;;;4.35;1.42;;;;;;;4.66;69.88;101370.25;10260728;28;20503;-60
2023/11/22 05:02:07;;;;;;;3.65;1.58;;;;;;;4.58;69.62;101378.81;10260636;28;20375;-59
2023/11/22 05:07:09;;;;;;;1.60;0.93;;;;;;;4.46;70.40;101393.84;10252836;28;20885;-60
2023/11/22 05:12:11;;;;;;;3.50;1.33;;;;;;;4.35;70.00;101397.31;10259789;28;20054;-59
2023/11/22 05:17:12;;;;;;;3.63;1.70;;;;;;;4.34;70.28;101413.38;10261754;28;20055;-60
2023/11/22 05:22:14;;;;;;;4.22;1.88;;;;;;;4.31;70.12;101418.94;10258126;28;20510;-59
2023/11/22 05:27:15;;;;;;;3.47;1.55;;;;;;;4.25;70.50;101414.88;10260905;28;20046;-59
2023/11/22 05:32:17;;;;;;;3.30;1.35;;;;;;;4.31;70.34;101426.91;10260958;28;20138;-61
2023/11/22 05:37:18;;;;;;;8.65;1.98;;;;;;;4.25;69.86;101428.19;10238127;28;20497;-61
2023/11/22 05:42:20;;;;;;;5.03;2.42;;;;;;;4.20;70.37;101430.31;10266146;28;20039;-59
2023/11/22 05:47:21;;;;;;;7.82;2.60;;;;;;;4.15;70.00;101437.78;10263852;28;20058;-59
2023/11/22 05:52:23;;;;;;;4.20;1.50;;;;;;;4.12;70.33;101444.16;10268177;28;20051;-58
2023/11/22 05:57:24;;;;;;;6.32;1.92;;;;;;;4.05;70.20;101456.19;10271134;28;20039;-58
2023/11/22 06:02:26;;;;;;;6.97;2.38;;;;;;;3.99;70.04;101461.94;10229672;28;20071;-58
2023/11/22 06:07:27;;;;;;;5.20;2.05;;;;;;;3.94;70.36;101466.72;10230966;28;20160;-57
2023/11/22 06:12:29;;;;;;;7.35;1.95;;;;;;;3.88;70.25;101470.66;10229903;28;20077;-57
2023/11/22 06:17:30;;;;;;;7.75;2.88;;;;;;;3.83;70.32;101480.78;10220490;28;20058;-58
2023/11/22 06:22:32;;;;;;;8.25;2.75;;;;;;;3.73;70.32;101496.50;10222015;28;20142;-58
2023/11/22 06:27:33;;;;;;;4.95;1.80;;;;;;;3.69;70.70;101507.41;10223767;28;20043;-58
2023/11/22 06:32:35;;;;;;;5.70;1.42;;;;;;;3.63;71.06;101516.66;10237823;28;20067;-58
2023/11/22 06:37:37;;;;;;;4.72;1.63;;;;;;;3.54;70.59;101517.28;10233514;28;20062;-58
2023/11/22 06:42:42;;;;;;;2.80;1.38;;;;;;;3.65;70.11;101527.19;10259625;28;20085;-61
2023/11/22 06:47:44;;;;;;;9.38;2.05;;;;;;;3.72;69.88;101523.19;10268068;28;20095;-61
2023/11/22 06:52:49;;;;;;;4.57;1.80;;;;;;;3.77;69.45;101524.59;10268243;28;20319;-61
2023/11/22 06:57:51;;;;;;;6.18;2.30;;;;;;;3.77;69.70;101513.94;10269582;28;20071;-61
2023/11/22 07:02:52;;;;;;;7.15;2.17;;;;;;;3.70;69.67;101527.75;10298329;28;20085;-60
2023/11/22 07:07:55;;;;;;;3.67;1.35;;;;;;;3.66;70.01;101539.53;10296195;28;20050;-61
2023/11/22 07:12:56;;;;;;;3.45;1.52;;;;;;;3.64;69.60;101557.41;10308219;28;20069;-60
2023/11/22 07:17:59;;;;;;;5.30;2.28;;;;;;;3.61;69.73;101553.13;10305806;28;20051;-61
2023/11/22 07:23:00;;;;;;;2.50;1.20;;;;;;;3.61;69.71;101560.25;10308879;28;20424;-60
2023/11/22 07:28:02;;;;;;;3.03;1.25;;;;;;;3.74;69.61;101562.00;10306659;28;20071;-60
2023/11/22 07:33:03;;;;;;;4.20;2.70;;;;;;;3.74;69.71;101571.78;10310389;28;20047;-60
2023/11/22 07:38:05;;;;;;;6.03;1.50;;;;;;;3.80;70.14;101570.53;10312732;28;20054;-60
2023/11/22 07:43:07;;;;;;;3.20;1.30;;;;;;;3.87;70.17;101566.50;10305741;28;20055;-60
2023/11/22 07:48:11;;;;;;;3.53;0.95;;;;;;;3.90;70.00;101561.84;10307006;28;20070;-60
2023/11/22 07:53:14;;;;;;;3.33;1.13;;;;;;;4.01;69.76;101566.44;10307334;28;20046;-61
2023/11/22 07:58:16;;;;;;;2.80;1.00;;;;;;;4.07;69.60;101563.38;10314678;28;20041;-60
2023/11/22 08:03:23;;;;;;;3.05;1.45;;;;;;;4.14;69.53;101554.00;10299439;28;20030;-61
2023/11/22 08:08:25;;;;;;;4.50;1.50;;;;;;;4.16;69.61;101557.41;10312787;28;20031;-60
2023/11/22 08:13:28;;;;;;;4.03;1.63;;;;;;;4.29;69.24;101565.41;10289483;28;20078;-61
2023/11/22 08:18:29;;;;;;;2.70;1.13;;;;;;;4.37;69.21;101575.53;10261602;28;20077;-61
2023/11/22 08:23:32;;;;;;;4.88;1.08;;;;;;;4.34;69.35;101578.41;10261631;28;20061;-62
2023/11/22 08:28:34;;;;;;;3.03;1.73;;;;;;;4.34;69.32;101571.28;10266058;28;20047;-61
2023/11/22 08:33:37;;;;;;;2.70;1.55;;;;;;;4.39;69.22;101568.31;10262583;28;20042;-62
2023/11/22 08:38:43;;;;;;;4.15;1.42;;;;;;;4.46;69.14;101577.53;10262315;28;20075;-63
2023/11/22 08:43:47;;;;;;;3.13;1.60;;;;;;;4.43;68.63;101585.75;10266201;28;20126;-61
2023/11/22 08:48:50;;;;;;;2.65;1.27;;;;;;;4.51;68.18;101582.56;10262762;28;20054;-61
2023/11/22 08:53:52;;;;;;;3.97;1.45;;;;;;;4.59;68.27;101584.72;10256347;28;20063;-61
2023/11/22 08:58:54;;;;;;;3.65;1.27;;;;;;;4.69;68.02;101593.75;10260259;28;20055;-61
2023/11/22 09:03:57;;;;;;;2.47;1.38;;;;;;;4.82;67.79;101599.94;10254655;28;20467;-61
2023/11/22 09:08:58;;;;;;;5.40;1.90;;;;;;;4.91;67.81;101598.44;10262679;28;20046;-62
2023/11/22 09:14:04;;;;;;;4.40;0.98;;;;;;;4.93;67.02;101600.00;10264920;28;20047;-61
2023/11/22 09:19:06;;;;;;;2.13;0.95;;;;;;;4.96;67.07;101605.13;10270773;28;20053;-62
2023/11/22 09:24:07;;;;;;;3.17;1.10;;;;;;;5.17;66.59;101601.91;10277481;28;20059;-64
2023/11/22 09:29:13;;;;;;;3.20;0.90;;;;;;;5.16;66.25;101608.19;10261545;28;20057;-65
2023/11/22 09:34:15;;;;;;;1.95;1.00;;;;;;;5.28;66.04;101622.47;10251682;28;20513;-62
2023/11/22 09:39:21;;;;;;;2.88;1.15;;;;;;;5.46;65.74;101630.94;10264179;28;20395;-62
2023/11/22 09:44:22;;;;;;;6.03;1.23;;;;;;;5.45;64.85;101639.91;10264995;28;20050;-66
2023/11/22 09:49:26;;;;;;;3.08;0.75;;;;;;;5.54;65.24;101633.91;10269973;28;20402;-68
2023/11/22 09:54:29;;;;;;;2.38;0.95;;;;;;;5.75;63.97;101634.16;10271604;28;20050;-69
2023/11/22 09:59:32;;;;;;;2.67;0.93;;;;;;;5.72;64.17;101647.72;10298818;23;20046;-69
2023/11/22 10:04:34;;;;;;;4.65;1.08;;;;;;;5.69;64.00;101642.63;10326785;28;20061;-68
2023/11/22 10:09:37;;;;;;;2.08;0.90;;;;;;;5.54;63.35;101644.56;10323381;28;20050;-69
2023/11/22 10:14:39;;;;;;;4.05;1.15;;;;;;;5.65;62.84;101644.66;10321002;28;20046;-69
2023/11/22 10:19:41;;;;;;;3.38;0.85;;;;;;;5.79;62.82;101673.00;10322361;28;20050;-67
2023/11/22 10:24:43;;;;;;;3.13;0.85;;;;;;;5.90;61.90;101666.84;10306114;28;20069;-66
2023/11/22 10:29:47;;;;;;;1.77;0.80;;;;;;;5.99;62.37;101646.69;10325371;28;20050;-68
2023/11/22 10:34:49;;;;;;;1.52;0.85;;;;;;;5.95;61.62;101644.25;10372332;23;20061;-83
2023/11/22 10:39:51;;;;;;;2.60;1.33;;;;;;;6.00;60.72;101633.22;10348633;28;20048;-83
2023/11/22 10:44:57;;;;;;;3.17;1.23;;;;;;;6.14;60.79;101641.06;10355633;28;20049;-84
2023/11/22 10:50:01;;;;;;;1.83;0.90;;;;;;;6.10;60.29;101666.28;10328254;28;20039;-82
2023/11/22 10:55:05;;;;;;;2.00;0.95;;;;;;;6.26;60.26;101670.44;10317561;28;20046;-84
2023/11/22 11:00:11;;;;;;;4.03;1.52;;;;;;;6.19;60.19;101680.75;10314546;28;20102;-84
2023/11/22 11:05:20;;;;;;;2.22;1.08;;;;;;;6.47;58.91;101684.00;10314762;28;20138;-84
2023/11/22 11:10:22;;;;;;;3.58;0.60;;;;;;;6.57;59.21;101702.88;10312515;28;20065;-84
2023/11/22 11:15:27;;;;;;;3.00;1.17;;;;;;;6.77;58.48;101702.19;10278890;28;20085;-84
2023/11/22 11:20:51;;;;;;;2.45;1.13;;;;;;;6.83;59.12;101707.09;10278706;28;20039;-85
2023/11/22 11:25:54;;;;;;;2.45;1.25;;;;;;;6.88;58.16;101694.19;10311500;28;20114;-84
2023/11/22 11:30:56;;;;;;;2.08;1.10;;;;;;;7.15;58.18;101690.38;10311412;28;20098;-84
2023/11/22 11:36:00;;;;;;;1.55;0.90;;;;;;;7.28;57.15;101696.41;10316046;28;20074;-85
2023/11/22 11:41:12;;;;;;;3.13;0.98;;;;;;;7.44;57.42;101701.41;10296482;28;20051;-84
2023/11/22 11:46:15;;;;;;;1.70;0.70;;;;;;;7.86;56.41;101703.44;10307327;28;20090;-84
2023/11/22 11:51:18;;;;;;;1.85;0.85;;;;;;;8.10;55.90;101689.88;10302912;28;20545;-84
2023/11/22 11:56:20;;;;;;;6.72;3.50;;;;;;;8.09;55.90;101664.06;10292025;28;20618;-84
2023/11/22 12:01:22;;;;;;;9.02;3.58;;;;;;;7.99;55.96;101673.84;10298387;28;20047;-84
2023/11/22 12:06:24;;;;;;;5.30;2.80;;;;;;;8.17;55.67;101653.56;10286630;28;20047;-83
2023/11/22 12:11:26;;;;;;;4.53;1.85;;;;;;;8.44;54.74;101645.06;10294771;28;20051;-82
2023/11/22 12:16:27;;;;;;;5.13;2.30;;;;;;;8.66;54.72;101636.03;10321752;28;20055;-81
2023/11/22 12:21:30;;;;;;;2.88;1.33;;;;;;;8.77;54.37;101628.91;10339060;28;20074;-87
2023/11/22 12:26:34;;;;;;;3.72;1.52;;;;;;;8.78;54.53;101631.44;10302647;28;20150;-88
2023/11/22 12:31:35;;;;;;;2.97;1.35;;;;;;;8.71;54.16;101641.88;10338107;28;20079;-86
2023/11/22 12:36:40;;;;;;;1.92;0.82;;;;;;;8.77;53.99;101637.81;10292567;28;20043;-86
2023/11/22 12:41:47;;;;;;;2.65;0.88;;;;;;;8.84;53.90;101633.59;10281431;28;20083;-87
2023/11/22 12:47:10;;;;;;;3.00;1.00;;;;;;;8.70;53.87;101642.00;10302827;28;20058;-86
2023/11/22 12:52:13;;;;;;;3.72;0.88;;;;;;;8.56;54.16;101647.69;10279272;28;20078;-87
2023/11/22 12:57:15;;;;;;;1.10;0.68;;;;;;;8.46;53.89;101645.78;10283753;28;20039;-86
2023/11/22 13:02:21;;;;;;;2.92;0.90;;;;;;;8.40;53.66;101651.63;10270905;28;20051;-86
2023/11/22 13:07:22;;;;;;;3.80;1.25;;;;;;;8.29;53.86;101635.59;10288097;28;20089;-85
2023/11/22 13:12:24;;;;;;;4.65;1.05;;;;;;;8.25;53.36;101626.13;10253601;28;20039;-85
2023/11/22 13:17:26;;;;;;;4.35;1.30;;;;;;;8.19;53.70;101603.38;10263941;28;20502;-86
2023/11/22 13:22:27;;;;;;;2.35;1.20;;;;;;;8.05;53.61;101593.84;10259136;28;20047;-85
2023/11/22 13:27:30;;;;;;;2.80;1.02;;;;;;;8.01;53.57;101588.88;10292640;28;20055;-85
2023/11/22 13:32:32;;;;;;;3.65;1.05;;;;;;;7.95;53.30;101571.50;10277368;28;20638;-86
2023/11/22 13:37:35;;;;;;;2.38;1.17;;;;;;;7.79;53.73;101569.25;10275803;28;20402;-85
2023/11/22 13:42:37;;;;;;;4.07;1.40;;;;;;;7.72;53.58;101579.63;10284146;28;21389;-86
2023/11/22 13:47:38;;;;;;;6.30;2.60;;;;;;;7.70;53.73;101586.94;10287195;28;20082;-86
2023/11/22 13:52:41;;;;;;;4.30;1.92;;;;;;;7.59;53.30;101588.78;10287678;28;20046;-86
2023/11/22 13:57:42;;;;;;;4.28;0.93;;;;;;;7.54;53.66;101598.03;10280394;28;20050;-85
2023/11/22 14:02:52;;;;;;;3.78;0.88;;;;;;;7.55;53.20;101626.50;10287566;28;20170;-84
2023/11/22 14:07:54;;;;;;;2.88;1.90;;;;;;;7.43;53.17;101618.63;10290165;28;20082;-85
2023/11/22 14:13:00;;;;;;;4.90;0.90;;;;;;;7.40;53.33;101598.28;10291918;28;20054;-85
2023/11/22 14:18:03;;;;;;;2.50;1.20;;;;;;;7.32;53.33;101604.25;10278024;28;20065;-85
2023/11/22 14:23:04;;;;;;;2.00;0.80;;;;;;;7.27;53.47;101592.25;10283741;28;20055;-85
2023/11/22 14:28:06;;;;;;;5.72;1.40;;;;;;;7.24;52.99;101587.16;10286924;28;20043;-85
2023/11/22 14:33:09;;;;;;;2.55;1.05;;;;;;;7.17;53.13;101583.25;10312507;23;20051;-62
2023/11/22 14:38:13;;;;;;;2.67;1.10;;;;;;;7.09;53.66;101586.53;10282478;28;20058;-61
2023/11/22 14:43:14;;;;;;;1.65;0.77;;;;;;;6.93;52.97;101594.94;10280369;28;20047;-62
2023/11/22 14:48:16;;;;;;;3.65;1.10;;;;;;;6.74;53.72;101596.38;10282404;28;20055;-62
2023/11/22 14:53:19;;;;;;;5.28;1.38;;;;;;;6.61;53.32;101609.00;10282031;28;20051;-60
2023/11/22 14:58:21;;;;;;;3.60;1.40;;;;;;;6.52;53.61;101610.56;10275047;28;20051;-62
2023/11/22 15:03:22;;;;;;;4.45;1.52;;;;;;;6.42;54.25;101617.59;10279359;28;20058;-64
2023/11/22 15:08:27;;;;;;;3.15;1.08;;;;;;;6.30;53.78;101639.88;10286062;28;20078;-62
2023/11/22 15:13:29;;;;;;;6.13;2.75;;;;;;;6.18;54.30;101652.38;10296213;28;20047;-63
2023/11/22 15:18:31;;;;;;;5.05;1.63;;;;;;;5.98;54.42;101661.00;10297384;28;20566;-63
2023/11/22 15:23:32;;;;;;;3.33;1.17;;;;;;;5.88;54.22;101674.97;10294135;28;20059;-61
2023/11/22 15:28:35;;;;;;;3.60;1.33;;;;;;;5.73;54.82;101674.28;10293036;28;20046;-63
2023/11/22 15:33:37;;;;;;;3.85;1.55;;;;;;;5.63;54.63;101675.06;10283511;28;20102;-62
2023/11/22 15:38:38;;;;;;;4.75;1.63;;;;;;;5.56;55.43;101686.16;10281442;28;20043;-61
2023/11/22 15:43:42;;;;;;;5.07;1.65;;;;;;;5.51;55.65;101682.13;10279675;28;20415;-62
2023/11/22 15:48:44;;;;;;;7.43;2.08;;;;;;;5.46;55.68;101694.94;10289029;28;20039;-61
2023/11/22 15:53:45;;;;;;;5.22;2.33;;;;;;;5.39;55.42;101720.34;10295845;28;20106;-64
2023/11/22 15:58:47;;;;;;;5.88;1.65;;;;;;;5.29;56.67;101723.66;10302381;28;20134;-63
2023/11/22 16:03:48;;;;;;;9.82;3.28;;;;;;;5.32;56.15;101714.59;10298574;28;20082;-59
2023/11/22 16:08:50;;;;;;;7.07;2.58;;;;;;;5.33;56.66;101730.50;10263360;28;20043;-60
2023/11/22 16:13:52;;;;;;;6.15;2.53;;;;;;;5.25;56.87;101713.31;10260562;28;20430;-60
2023/11/22 16:18:53;;;;;;;6.32;2.00;;;;;;;5.19;56.80;101717.25;10250287;28;20062;-60
2023/11/22 16:23:55;;;;;;;5.80;3.00;;;;;;;5.19;57.46;101708.41;10263653;28;20502;-60
2023/11/22 16:28:57;;;;;;;15.07;6.65;;;;;;;5.18;57.62;101704.06;10263967;28;20053;-60
2023/11/22 16:33:59;;;;;;;9.25;4.28;;;;;;;5.16;57.38;101704.16;10256018;28;20455;-59
2023/11/22 16:39:00;;;;;;;8.15;3.67;;;;;;;5.14;57.74;101708.75;10232520;29;20051;-57
2023/11/22 16:44:05;;;;;;;3.90;1.33;;;;;;;4.99;57.74;101691.16;10228933;29;20562;-57
2023/11/22 16:49:08;;;;;;;4.28;1.90;;;;;;;4.95;58.17;101686.00;10214365;29;20092;-57
2023/11/22 16:54:10;;;;;;;2.97;1.13;;;;;;;4.78;58.40;101665.03;10225824;29;20506;-58
2023/11/22 16:59:12;;;;;;;5.50;1.65;;;;;;;4.62;59.02;101675.91;10226868;28;20055;-57
2023/11/22 17:04:13;;;;;;;5.75;2.10;;;;;;;4.47;59.63;101661.81;10227759;28;20058;-57
2023/11/22 17:09:17;;;;;;;5.07;2.60;;;;;;;4.36;59.59;101677.63;10224840;28;20051;-57
2023/11/22 17:14:19;;;;;;;5.68;2.30;;;;;;;4.31;59.58;101671.78;10212654;29;20115;-57
2023/11/22 17:19:20;;;;;;;4.70;2.20;;;;;;;4.33;59.52;101700.00;10225696;29;20495;-57
2023/11/22 17:24:22;;;;;;;5.30;1.90;;;;;;;4.34;59.87;101699.06;10213599;29;20062;-56
2023/11/22 17:29:24;;;;;;;6.15;2.38;;;;;;;4.34;59.28;101717.69;10230368;29;20052;-57
2023/11/22 17:34:26;;;;;;;5.07;2.58;;;;;;;4.25;60.14;101715.63;10216803;29;20086;-57
2023/11/22 17:39:28;;;;;;;7.05;2.92;;;;;;;4.25;60.44;101698.81;10213734;29;20051;-57
2023/11/22 17:44:29;;;;;;;8.50;2.90;;;;;;;4.28;60.25;101688.78;10231065;28;20059;-58
2023/11/22 17:49:31;;;;;;;6.53;3.60;;;;;;;4.30;60.48;101689.53;10234166;29;20082;-56
2023/11/22 17:54:33;;;;;;;11.82;3.63;;;;;;;4.32;60.24;101669.00;10218623;29;20047;-58
2023/11/22 17:59:34;;;;;;;6.15;3.05;;;;;;;4.24;60.58;101670.47;10228016;29;20051;-57
2023/11/22 18:04:36;;;;;;;13.00;4.25;;;;;;;4.16;60.80;101668.31;10216760;28;20047;-58
2023/11/22 18:09:38;;;;;;;15.10;4.43;;;;;;;4.10;60.93;101674.91;10230108;29;20408;-57
2023/11/22 18:14:39;;;;;;;8.25;3.53;;;;;;;4.06;60.91;101670.75;10229361;29;20040;-57
2023/11/22 18:19:41;;;;;;;4.90;3.03;;;;;;;4.03;61.33;101672.75;10232558;29;20082;-58
2023/11/22 18:24:42;;;;;;;6.30;3.03;;;;;;;4.04;61.28;101675.31;10214719;29;20070;-58
2023/11/22 18:29:44;;;;;;;6.53;2.72;;;;;;;4.03;61.25;101670.06;10230445;28;20406;-58
2023/11/22 18:34:45;;;;;;;4.55;2.55;;;;;;;4.11;61.07;101670.44;10243056;28;20055;-58
2023/11/22 18:39:47;;;;;;;9.02;3.70;;;;;;;4.09;61.01;101669.69;10268155;28;20142;-58
2023/11/22 18:44:49;;;;;;;10.02;3.53;;;;;;;4.13;61.25;101656.09;10264291;28;20490;-58
2023/11/22 18:49:50;;;;;;;6.07;2.60;;;;;;;4.20;60.67;101653.84;10268469;28;20133;-58
2023/11/22 18:54:52;;;;;;;6.75;3.58;;;;;;;4.24;60.63;101654.50;10266109;28;20060;-59
2023/11/22 18:59:56;;;;;;;8.40;3.95;;;;;;;4.30;60.90;101651.44;10245946;28;20074;-58
2023/11/22 19:04:58;;;;;;;5.72;3.17;;;;;;;4.28;61.40;101656.84;10267036;28;20137;-58
2023/11/22 19:10:00;;;;;;;5.97;2.40;;;;;;;4.29;61.19;101647.94;10266373;28;20053;-58
2023/11/22 19:15:02;;;;;;;7.22;3.15;;;;;;;4.39;61.07;101640.19;10259940;28;20051;-59
2023/11/22 19:20:05;;;;;;;5.85;3.22;;;;;;;4.45;60.96;101638.91;10258692;28;20046;-59
2023/11/22 19:25:12;;;;;;;7.10;2.88;;;;;;;4.49;60.50;101622.63;10233905;28;20098;-58
2023/11/22 19:30:14;;;;;;;6.20;3.50;;;;;;;4.57;60.91;101620.28;10269540;28;20051;-57
2023/11/22 19:35:16;;;;;;;7.72;2.80;;;;;;;4.62;60.69;101629.75;10255661;28;20378;-58
2023/11/22 19:40:17;;;;;;;6.30;2.92;;;;;;;4.48;61.27;101644.88;10275208;28;20047;-57
2023/11/22 19:45:19;;;;;;;6.78;3.72;;;;;;;4.39;61.49;101632.19;10252572;28;20129;-59
2023/11/22 19:50:22;;;;;;;9.02;3.03;;;;;;;4.39;61.02;101636.66;10256220;28;20058;-58
2023/11/22 19:55:24;;;;;;;7.28;3.45;;;;;;;4.29;61.38;101653.25;10260055;28;20122;-59
2023/11/22 20:00:25;;;;;;;7.10;3.15;;;;;;;4.29;61.57;101650.59;10240597;28;20043;-58
2023/11/22 20:05:27;;;;;;;13.38;4.47;;;;;;;4.29;61.47;101620.47;10267267;28;20051;-59
2023/11/22 20:10:28;;;;;;;6.95;3.78;;;;;;;4.26;61.54;101604.69;10272268;28;20070;-59
2023/11/22 20:15:31;;;;;;;8.95;4.78;;;;;;;4.18;61.55;101608.72;10254960;28;20055;-57
2023/11/22 20:20:32;;;;;;;9.63;3.55;;;;;;;4.09;61.54;101629.78;10261160;28;20134;-56
2023/11/22 20:25:35;;;;;;;11.60;4.72;;;;;;;4.05;61.78;101639.78;10272367;28;20051;-57
2023/11/22 20:30:37;;;;;;;7.63;3.25;;;;;;;4.04;61.83;101640.72;10241167;28;20117;-56
2023/11/22 20:35:39;;;;;;;11.35;3.67;;;;;;;4.03;61.61;101640.81;10213470;28;20082;-56
2023/11/22 20:40:44;;;;;;;8.35;3.40;;;;;;;4.05;61.48;101634.47;10224964;28;20506;-57
2023/11/22 20:45:46;;;;;;;9.68;3.65;;;;;;;4.01;61.46;101627.63;10215986;28;20055;-57
2023/11/22 20:50:48;;;;;;;10.68;3.25;;;;;;;3.98;61.71;101617.19;10219373;28;20513;-57
2023/11/22 20:55:49;;;;;;;10.23;3.90;;;;;;;4.02;62.05;101612.53;10224100;28;20055;-56
2023/11/22 21:00:51;;;;;;;7.78;4.18;;;;;;;4.03;61.86;101612.44;10222022;28;20055;-56
2023/11/22 21:05:52;;;;;;;9.57;3.33;;;;;;;4.08;61.53;101610.28;10211032;28;20078;-56
2023/11/22 21:10:54;;;;;;;6.15;3.38;;;;;;;4.08;61.92;101601.47;10215090;28;20039;-57
2023/11/22 21:15:56;;;;;;;7.72;3.92;;;;;;;4.13;61.78;101596.69;10222895;28;20074;-57
2023/11/22 21:20:57;;;;;;;6.45;3.08;;;;;;;4.17;61.55;101585.72;10229736;28;20043;-58
2023/11/22 21:26:01;;;;;;;8.13;3.67;;;;;;;4.25;61.51;101587.88;10225100;28;20052;-56
2023/11/22 21:31:03;;;;;;;7.70;3.45;;;;;;;4.28;61.90;101586.81;10205542;28;20059;-57
2023/11/22 21:36:09;;;;;;;10.70;4.05;;;;;;;4.26;61.58;101580.75;10225929;28;20507;-57
2023/11/22 21:41:13;;;;;;;7.50;3.85;;;;;;;4.27;62.31;101583.31;10215057;28;20503;-56
2023/11/22 21:46:16;;;;;;;8.35;3.72;;;;;;;4.25;61.66;101603.00;10232957;28;20051;-57
2023/11/22 21:51:28;;;;;;;7.90;3.65;;;;;;;4.25;61.86;101611.00;10215362;29;20083;-57
2023/11/22 21:56:30;;;;;;;10.05;4.55;;;;;;;4.33;61.65;101603.31;10216971;28;20199;-56
2023/11/22 22:01:37;;;;;;;9.30;4.45;;;;;;;4.35;61.58;101615.56;10215131;29;20054;-57
2023/11/22 22:06:38;;;;;;;8.95;4.15;;;;;;;4.39;62.07;101612.72;10211529;29;20051;-56
2023/11/22 22:11:41;;;;;;;7.28;3.22;;;;;;;4.42;61.57;101609.81;10229036;29;20071;-57
2023/11/22 22:16:43;;;;;;;7.82;3.72;;;;;;;4.40;61.92;101607.25;10232913;29;20059;-57
2023/11/22 22:21:45;;;;;;;9.48;5.10;;;;;;;4.31;62.30;101611.41;10224104;29;20539;-57
2023/11/22 22:26:46;;;;;;;8.45;4.15;;;;;;;4.37;61.85;101584.38;10230921;28;20052;-57
2023/11/22 22:31:48;;;;;;;7.45;3.83;;;;;;;4.41;62.05;101560.22;10225211;29;20047;-59
2023/11/22 22:36:51;;;;;;;11.70;5.35;;;;;;;4.33;62.23;101576.72;10255446;28;20047;-58
2023/11/22 22:41:52;;;;;;;11.40;3.95;;;;;;;4.33;62.00;101582.88;10252696;28;20047;-58
2023/11/22 22:46:54;;;;;;;11.43;4.15;;;;;;;4.26;62.13;101578.06;10248428;28;20043;-58
2023/11/22 22:51:56;;;;;;;9.60;3.80;;;;;;;4.33;62.51;101584.69;10262679;28;20133;-58
2023/11/22 22:57:10;;;;;;;10.20;4.88;;;;;;;4.44;62.17;101587.44;10261248;28;20051;-58
2023/11/22 23:02:12;;;;;;;8.63;3.70;;;;;;;4.49;61.89;101580.00;10263155;28;20433;-58
2023/11/22 23:07:13;;;;;;;9.52;4.43;;;;;;;4.44;61.99;101581.28;10263347;28;20474;-58
2023/11/22 23:12:15;;;;;;;10.65;4.53;;;;;;;4.24;62.14;101570.19;10264019;28;20055;-58
2023/11/22 23:17:17;;;;;;;10.18;4.78;;;;;;;4.17;62.65;101569.78;10257416;28;20046;-58
2023/11/22 23:22:18;;;;;;;8.40;4.18;;;;;;;4.09;63.01;101556.13;10262145;28;20501;-58